Погода Большая Хлоповаяна неделю

Ростовская область, Россия

27 мая-02 июня
  • 27мая
    Сегодня
    +12°
    +28°
    Ясно и безоблачно
    ВремяПогодаТемператураВлажностьДавлениеВетер, м/сВероятность осадков
    00:00Облачно с прояснениями+12°C45 %762 мм1.1 м/с8 %
    03:00Пасмурно, сплошная облачность+11°C51 %762 мм0.6 м/с2 %
    06:00Небольшая облачность+13°C48 %762 мм1.1 м/с2 %
    09:00Ясно и безоблачно+22°C26 %763 мм3.2 м/с2 %
    12:00Ясно и безоблачно+26°C20 %762 мм5.1 м/с2 %
    15:00Ясно и безоблачно+27°C18 %762 мм4.9 м/с2 %
    18:00Ясно и безоблачно+26°C19 %761 мм3.6 м/с2 %
    21:00Ясно и безоблачно+18°C31 %762 мм2.5 м/с2 %
  • 28мая
    Вторник
    +12°
    +28°
    Ясно и безоблачно
    ВремяПогодаТемператураВлажностьДавлениеВетер, м/сВероятность осадков
    00:00Ясно и безоблачно+16°C42 %762 мм2.8 м/с2 %
    03:00Ясно и безоблачно+13°C47 %763 мм2.9 м/с2 %
    06:00Ясно и безоблачно+14°C47 %763 мм2.9 м/с2 %
    09:00Ясно и безоблачно+21°C36 %763 мм5.3 м/с2 %
    12:00Ясно и безоблачно+25°C27 %763 мм6.0 м/с2 %
    15:00Ясно и безоблачно+27°C24 %761 мм6.0 м/с2 %
    18:00Облачно с прояснениями+26°C25 %761 мм4.4 м/с2 %
    21:00Облачно с прояснениями+20°C33 %761 мм3.9 м/с2 %
  • 29мая
    Среда
    +14°
    +29°
    Небольшая облачность
    ВремяПогодаТемператураВлажностьДавлениеВетер, м/сВероятность осадков
    00:00Небольшая облачность+16°C36 %760 мм3.3 м/с2 %
    03:00Ясно и безоблачно+13°C36 %760 мм3.1 м/с2 %
    06:00Ясно и безоблачно+14°C36 %760 мм2.7 м/с2 %
    09:00Ясно и безоблачно+23°C29 %759 мм5.2 м/с2 %
    12:00Небольшая облачность+27°C21 %759 мм6.2 м/с2 %
    15:00Небольшая облачность+29°C19 %757 мм5.5 м/с6 %
    18:00Практически безоблачно+27°C22 %757 мм3.8 м/с6 %
    21:00Практически безоблачно+23°C30 %757 мм3.1 м/с10 %
  • 30мая
    Четверг
    +12°
    +30°
    Практически безоблачно
    ВремяПогодаТемператураВлажностьДавлениеВетер, м/сВероятность осадков
    00:00Облачно с прояснениями+18°C37 %756 мм1.3 м/с20 %
    03:00Небольшая облачность+15°C50 %756 мм1.3 м/с21 %
    06:00Облачно с прояснениями+17°C71 %757 мм2.5 м/с33 %
    09:00Облачно с прояснениями+23°C58 %757 мм4.1 м/с30 %
    12:00Практически безоблачно+27°C39 %757 мм4.4 м/с17 %
    15:00Практически безоблачно+29°C35 %756 мм3.8 м/с28 %
    18:00Практически безоблачно+29°C37 %756 мм2.3 м/с31 %
    21:00Небольшая облачность+22°C57 %756 мм0.6 м/с4 %
  • 31мая
    Пятница
    +13°
    +30°
    Небольшая облачность
    ВремяПогодаТемператураВлажностьДавлениеВетер, м/сВероятность осадков
    00:00Облачно с прояснениями+18°C76 %756 мм1.1 м/с3 %
    03:00Небольшая облачность+14°C77 %756 мм1.1 м/с3 %
    06:00Ясно и безоблачно+16°C72 %757 мм0.7 м/с4 %
    09:00Ясно и безоблачно+26°C44 %757 мм2.8 м/с5 %
    12:00Небольшая облачность+29°C35 %757 мм3.4 м/с12 %
    15:00Небольшая облачность+30°C33 %756 мм3.6 м/с25 %
    18:00Небольшая облачность+28°C30 %756 мм2.1 м/с18 %
    21:00Облачно с прояснениями+21°C45 %757 мм0.7 м/с6 %
Мы используем cookies
Соглашаюсь